Alkabo, North Dakota
Current Conditions -  °F | °C
As of 11:52 AM on Sunday 21 Dec 2014 (Local Time) from KISN Reporting Station
Overcast Overcast  
Wind Chill: 29°   Ceiling: 9500
Heat Index: 29°   Visibility: 10mi
Dew Point: 25°   Wind: 0mph
Humidity: 85%   Direction: NA
Pressure: 29.4"   Gusts: NA
Location:  48.5901°N, 103.922°W
Report Text: KISN 211752Z AUTO 00000KT 10SM OVC095 M02/M04 A2940 RMK AO2 SLP981 I6000 T10171039 11017 21117 58024 $
Loading
Personal Weather Stations






























Interactive Weather Map New forecast layout! Learn more

10-Day Weather Forecast

Advertisements
Track Severe Weather on mobile